Time;durP1;ratioP1;P1;durP2;ratioP2;P2;SDS_P1;SDS_P2;PMS_P1;PMS_P2;Temp;Humidity;BMP_temperature;BMP_pressure;BME280_temperature;BME280_humidity;BME280_pressure;Samples;Min_cycle;Max_cycle;Signal;HPM_P1;HPM_P2
2021/09/10 00:00:20;;;;;;;;;;;23.40;59.00;;;;;;4991694;28;20008;-66
2021/09/10 00:02:47;;;;;;;;;;;23.40;59.00;;;;;;4960764;28;20282;-67
2021/09/10 00:05:15;;;;;;;;;;;23.30;58.90;;;;;;4990898;28;19930;-67
2021/09/10 00:07:42;;;;;;;;;;;23.30;58.90;;;;;;4990770;28;20018;-67
2021/09/10 00:10:09;;;;;;;;;;;23.40;59.00;;;;;;4990728;28;19926;-67
2021/09/10 00:12:37;;;;;;;;;;;23.40;59.00;;;;;;4991604;28;19926;-67
2021/09/10 00:15:04;;;;;;;;;;;23.40;59.00;;;;;;4991335;28;20451;-67
2021/09/10 00:17:31;;;;;;;;;;;23.30;58.90;;;;;;4991512;28;19930;-67
2021/09/10 00:19:58;;;;;;;;;;;23.30;58.90;;;;;;4990335;28;19926;-67
2021/09/10 00:22:25;;;;;;;;;;;23.40;58.90;;;;;;4991423;28;20335;-67
2021/09/10 00:24:52;;;;;;;;;;;23.30;58.80;;;;;;4991121;28;20442;-68
2021/09/10 00:27:19;;;;;;;;;;;23.40;58.90;;;;;;4990675;28;19976;-67
2021/09/10 00:29:46;;;;;;;;;;;23.30;58.80;;;;;;4991307;28;19984;-67
2021/09/10 00:32:13;;;;;;;;;;;23.30;58.90;;;;;;4990291;28;20319;-67
2021/09/10 00:34:40;;;;;;;;;;;23.30;58.90;;;;;;4990872;28;20013;-68
2021/09/10 00:37:07;;;;;;;;;;;23.30;58.80;;;;;;4989871;28;19925;-67
2021/09/10 00:39:34;;;;;;;;;;;23.40;58.90;;;;;;4990725;28;19926;-68
2021/09/10 00:42:02;;;;;;;;;;;23.30;58.80;;;;;;4989914;28;19984;-67
2021/09/10 00:44:28;;;;;;;;;;;23.30;58.80;;;;;;4990972;28;20012;-67
2021/09/10 00:46:55;;;;;;;;;;;23.40;58.90;;;;;;4989774;28;19937;-69
2021/09/10 00:49:22;;;;;;;;;;;23.30;58.80;;;;;;4990616;28;19973;-67
2021/09/10 00:51:49;;;;;;;;;;;23.30;58.80;;;;;;4992146;28;20330;-68
2021/09/10 00:54:16;;;;;;;;;;;23.30;58.80;;;;;;4989709;28;20337;-67
2021/09/10 00:56:43;;;;;;;;;;;23.40;58.80;;;;;;4990495;28;19969;-67
2021/09/10 00:59:10;;;;;;;;;;;23.40;58.80;;;;;;4990677;28;20374;-67
2021/09/10 01:01:38;;;;;;;;;;;23.30;58.80;;;;;;4973855;28;19926;-66
2021/09/10 01:04:05;;;;;;;;;;;23.30;58.80;;;;;;4990019;28;20023;-66
2021/09/10 01:06:32;;;;;;;;;;;23.30;58.80;;;;;;4988546;28;20440;-66
2021/09/10 01:09:00;;;;;;;;;;;23.30;58.80;;;;;;4989251;28;19951;-66
2021/09/10 01:11:47;;;;;;;;;;;23.30;58.80;;;;;;4990202;28;19968;-66
2021/09/10 01:14:15;;;;;;;;;;;23.30;58.80;;;;;;4988293;28;19926;-66
2021/09/10 01:16:42;;;;;;;;;;;23.30;58.80;;;;;;4990325;28;19937;-67
2021/09/10 01:19:18;;;;;;;;;;;23.30;58.80;;;;;;4990296;28;19926;-66
2021/09/10 01:21:49;;;;;;;;;;;23.30;58.70;;;;;;4989560;28;20262;-66
2021/09/10 01:24:16;;;;;;;;;;;23.30;58.80;;;;;;4990174;28;19977;-66
2021/09/10 01:26:43;;;;;;;;;;;23.30;58.80;;;;;;4989394;28;19976;-66
2021/09/10 01:29:10;;;;;;;;;;;23.30;58.80;;;;;;4990122;28;19976;-67
2021/09/10 01:31:37;;;;;;;;;;;23.30;58.80;;;;;;4990253;28;19926;-66
2021/09/10 01:34:04;;;;;;;;;;;23.30;58.80;;;;;;4989518;28;19949;-67
2021/09/10 01:36:31;;;;;;;;;;;23.30;58.80;;;;;;4990419;28;19972;-66
2021/09/10 01:38:58;;;;;;;;;;;23.30;58.70;;;;;;4972830;28;20013;-66
2021/09/10 01:41:25;;;;;;;;;;;23.30;59.30;;;;;;4989341;28;19979;-66
2021/09/10 01:43:52;;;;;;;;;;;23.30;58.80;;;;;;4988890;28;19930;-67
2021/09/10 01:46:19;;;;;;;;;;;23.30;58.80;;;;;;4988924;28;19926;-66
2021/09/10 01:48:48;;;;;;;;;;;23.30;58.80;;;;;;4971697;28;19971;-66
2021/09/10 01:51:15;;;;;;;;;;;23.30;58.70;;;;;;4989952;28;20009;-67
2021/09/10 01:53:42;;;;;;;;;;;23.30;58.70;;;;;;5052331;28;20448;-66
2021/09/10 01:56:09;;;;;;;;;;;23.30;58.70;;;;;;4981612;28;19937;-66
2021/09/10 01:58:36;;;;;;;;;;;23.30;58.70;;;;;;4989802;28;19926;-66
2021/09/10 02:01:03;;;;;;;;;;;23.30;58.70;;;;;;4990143;28;19926;-66
2021/09/10 02:03:31;;;;;;;;;;;23.30;58.70;;;;;;4989909;28;20008;-68
2021/09/10 02:05:59;;;;;;;;;;;23.30;58.70;;;;;;4989905;28;19930;-67
2021/09/10 02:08:25;;;;;;;;;;;23.30;58.70;;;;;;4989365;28;19963;-66
2021/09/10 02:10:52;;;;;;;;;;;23.30;58.70;;;;;;4989157;28;19992;-66
2021/09/10 02:13:20;;;;;;;;;;;23.30;58.70;;;;;;4990236;28;20020;-67
2021/09/10 02:15:47;;;;;;;;;;;23.30;58.70;;;;;;4992679;28;19994;-67
2021/09/10 02:18:14;;;;;;;;;;;23.30;59.30;;;;;;4974746;28;19972;-66
2021/09/10 02:20:41;;;;;;;;;;;23.30;58.70;;;;;;4978668;28;19972;-67
2021/09/10 02:23:08;;;;;;;;;;;23.30;58.70;;;;;;4992944;28;20412;-67
2021/09/10 02:25:35;;;;;;;;;;;23.30;58.70;;;;;;4991856;28;19930;-68
2021/09/10 02:28:02;;;;;;;;;;;23.30;58.70;;;;;;4991657;28;19929;-66
2021/09/10 02:30:29;;;;;;;;;;;23.30;58.70;;;;;;4992751;28;19926;-66
2021/09/10 02:32:56;;;;;;;;;;;23.30;58.70;;;;;;4975831;28;19926;-66
2021/09/10 02:35:23;;;;;;;;;;;23.30;58.60;;;;;;4992000;28;20016;-67
2021/09/10 02:37:50;;;;;;;;;;;23.30;58.70;;;;;;4992716;28;19969;-67
2021/09/10 02:40:17;;;;;;;;;;;23.30;58.60;;;;;;4992635;28;19975;-67
2021/09/10 02:42:44;;;;;;;;;;;23.30;58.60;;;;;;4993188;28;20278;-66
2021/09/10 02:45:11;;;;;;;;;;;23.30;58.60;;;;;;4992624;28;20397;-66
2021/09/10 02:47:39;;;;;;;;;;;23.30;58.60;;;;;;4992946;28;20021;-67
2021/09/10 02:50:06;;;;;;;;;;;23.30;58.60;;;;;;4992816;28;19926;-67
2021/09/10 02:52:33;;;;;;;;;;;23.30;58.60;;;;;;5012829;28;20029;-66
2021/09/10 02:55:00;;;;;;;;;;;23.30;58.60;;;;;;4992625;28;20016;-66
2021/09/10 02:57:28;;;;;;;;;;;23.30;58.60;;;;;;4992289;28;20327;-66
2021/09/10 02:59:55;;;;;;;;;;;23.30;58.60;;;;;;4975538;28;19927;-66
2021/09/10 03:02:22;;;;;;;;;;;23.30;58.60;;;;;;4992554;28;19925;-67
2021/09/10 03:04:49;;;;;;;;;;;23.30;58.60;;;;;;4991967;28;19926;-66
2021/09/10 03:07:16;;;;;;;;;;;23.30;58.60;;;;;;4991652;28;19973;-67
2021/09/10 03:09:43;;;;;;;;;;;23.20;58.50;;;;;;4991479;28;20363;-69
2021/09/10 03:12:10;;;;;;;;;;;23.30;58.60;;;;;;4992310;28;19975;-67
2021/09/10 03:14:37;;;;;;;;;;;23.20;58.50;;;;;;4991331;28;19926;-66
2021/09/10 04:16:01;;;;;;;;;;;23.20;58.40;;;;;;4971915;28;20043;-67
2021/09/10 04:18:28;;;;;;;;;;;23.20;58.40;;;;;;4991222;28;19936;-68
2021/09/10 04:20:55;;;;;;;;;;;23.20;58.40;;;;;;4990016;28;19925;-67
2021/09/10 04:23:22;;;;;;;;;;;23.20;58.40;;;;;;4989984;28;20427;-66
2021/09/10 04:25:49;;;;;;;;;;;23.20;58.40;;;;;;4991492;28;20267;-66
2021/09/10 04:28:16;;;;;;;;;;;23.20;58.40;;;;;;4990135;28;20399;-67
2021/09/10 04:30:43;;;;;;;;;;;23.20;58.40;;;;;;4991277;28;19977;-67
2021/09/10 04:33:11;;;;;;;;;;;23.20;58.40;;;;;;4991426;28;20004;-67
2021/09/10 04:35:38;;;;;;;;;;;23.20;58.40;;;;;;4990902;28;20001;-66
2021/09/10 04:38:05;;;;;;;;;;;23.20;58.40;;;;;;4988756;28;19926;-66
2021/09/10 04:40:32;;;;;;;;;;;23.20;58.40;;;;;;4989793;28;19926;-67
2021/09/10 04:42:58;;;;;;;;;;;23.20;58.40;;;;;;4990984;28;19930;-66
2021/09/10 04:45:25;;;;;;;;;;;23.20;58.40;;;;;;4990714;28;19973;-66
2021/09/10 04:47:52;;;;;;;;;;;23.20;58.30;;;;;;4990768;28;19926;-66
2021/09/10 04:50:19;;;;;;;;;;;23.20;58.30;;;;;;4990976;28;19984;-66
2021/09/10 04:52:46;;;;;;;;;;;23.20;58.20;;;;;;5039231;28;19939;-67
2021/09/10 04:55:13;;;;;;;;;;;23.20;58.20;;;;;;4990719;28;19926;-66
2021/09/10 04:57:41;;;;;;;;;;;23.20;58.30;;;;;;4989419;28;19965;-68
2021/09/10 05:00:08;;;;;;;;;;;23.20;58.30;;;;;;4989755;28;20001;-67
2021/09/10 05:02:37;;;;;;;;;;;23.20;58.20;;;;;;4989948;28;19932;-67
2021/09/10 05:05:05;;;;;;;;;;;23.20;58.20;;;;;;4989407;28;19979;-67
2021/09/10 05:07:32;;;;;;;;;;;23.20;58.20;;;;;;4990604;28;19925;-67
2021/09/10 05:09:59;;;;;;;;;;;23.20;58.20;;;;;;4990555;28;19934;-67
2021/09/10 05:12:26;;;;;;;;;;;23.20;58.20;;;;;;4989656;28;19926;-66
2021/09/10 05:14:53;;;;;;;;;;;23.20;58.20;;;;;;4973614;28;19995;-66
2021/09/10 05:17:20;;;;;;;;;;;23.20;58.10;;;;;;4989233;28;19929;-67
2021/09/10 05:19:47;;;;;;;;;;;23.20;58.10;;;;;;4990527;28;19926;-67
2021/09/10 05:22:15;;;;;;;;;;;23.20;58.10;;;;;;4990731;28;19926;-66
2021/09/10 05:24:42;;;;;;;;;;;23.20;58.10;;;;;;4972348;28;20328;-67
2021/09/10 05:27:09;;;;;;;;;;;23.20;58.10;;;;;;4990332;28;19975;-67
2021/09/10 05:29:36;;;;;;;;;;;23.20;58.10;;;;;;4990071;28;19926;-67
2021/09/10 05:32:03;;;;;;;;;;;23.20;58.00;;;;;;4990230;28;20473;-67
2021/09/10 05:34:30;;;;;;;;;;;23.20;58.00;;;;;;4986600;28;20464;-66
2021/09/10 05:36:57;;;;;;;;;;;23.20;58.00;;;;;;4989132;28;19987;-66
2021/09/10 05:39:24;;;;;;;;;;;23.20;58.00;;;;;;4988232;28;19926;-67
2021/09/10 05:41:51;;;;;;;;;;;23.20;57.90;;;;;;4987823;28;19930;-68
2021/09/10 05:44:18;;;;;;;;;;;23.30;58.00;;;;;;4988661;28;19926;-65
2021/09/10 05:46:45;;;;;;;;;;;23.30;58.00;;;;;;4988263;28;19925;-65
2021/09/10 05:49:12;;;;;;;;;;;23.30;58.10;;;;;;4989661;28;19933;-66
2021/09/10 05:51:39;;;;;;;;;;;23.30;58.10;;;;;;5000285;28;19926;-69
2021/09/10 05:54:06;;;;;;;;;;;23.30;57.90;;;;;;4991401;28;19937;-66
2021/09/10 05:56:37;;;;;;;;;;;23.30;57.80;;;;;;4991838;28;19984;-69
2021/09/10 05:59:04;;;;;;;;;;;23.30;57.80;;;;;;4973912;28;20001;-69
2021/09/10 06:01:31;;;;;;;;;;;23.30;57.40;;;;;;4992473;28;19983;-66
2021/09/10 06:03:59;;;;;;;;;;;23.20;57.00;;;;;;4990699;28;19979;-67
2021/09/10 06:06:27;;;;;;;;;;;23.20;56.80;;;;;;4991953;28;19972;-65
2021/09/10 06:08:53;;;;;;;;;;;23.10;56.60;;;;;;4990770;28;19930;-65
2021/09/10 06:11:20;;;;;;;;;;;23.10;56.30;;;;;;4991059;28;19926;-65
2021/09/10 06:13:47;;;;;;;;;;;23.10;56.20;;;;;;4990578;28;19926;-66
2021/09/10 06:16:14;;;;;;;;;;;23.10;55.80;;;;;;4991589;28;20297;-65
2021/09/10 06:18:41;;;;;;;;;;;23.10;55.70;;;;;;4991855;28;19926;-68
2021/09/10 06:21:08;;;;;;;;;;;23.10;55.80;;;;;;4991951;28;20021;-66
2021/09/10 06:23:35;;;;;;;;;;;23.10;55.70;;;;;;4992425;28;19926;-65
2021/09/10 06:26:02;;;;;;;;;;;23.10;55.50;;;;;;4992202;28;19929;-65
2021/09/10 06:28:29;;;;;;;;;;;23.20;55.50;;;;;;4992118;28;19953;-67
2021/09/10 06:30:56;;;;;;;;;;;23.20;55.50;;;;;;4991860;28;19969;-65
2021/09/10 06:33:28;;;;;;;;;;;23.20;55.50;;;;;;4992184;28;20266;-65
2021/09/10 06:35:56;;;;;;;;;;;23.30;55.60;;;;;;4992143;28;19948;-64
2021/09/10 06:38:23;;;;;;;;;;;23.30;55.60;;;;;;4990661;28;20358;-67
2021/09/10 06:40:50;;;;;;;;;;;23.30;55.70;;;;;;4991937;28;20423;-68
2021/09/10 06:43:17;;;;;;;;;;;23.30;55.70;;;;;;4990727;28;19983;-65
2021/09/10 06:45:45;;;;;;;;;;;23.40;55.80;;;;;;4974164;28;19926;-65
2021/09/10 06:48:12;;;;;;;;;;;23.40;55.80;;;;;;4990971;28;19926;-65
2021/09/10 06:50:40;;;;;;;;;;;23.50;55.90;;;;;;4992245;28;20330;-66
2021/09/10 06:53:08;;;;;;;;;;;23.50;55.90;;;;;;5064831;28;19931;-66
2021/09/10 06:55:35;;;;;;;;;;;23.50;56.00;;;;;;4991530;28;20083;-65
2021/09/10 06:58:02;;;;;;;;;;;23.50;56.10;;;;;;4990692;28;19926;-65
2021/09/10 07:00:29;;;;;;;;;;;23.50;56.20;;;;;;4989841;28;20322;-65
2021/09/10 07:02:56;;;;;;;;;;;23.50;56.20;;;;;;4991677;28;19933;-64
2021/09/10 07:05:23;;;;;;;;;;;23.60;56.40;;;;;;4991602;28;19929;-68
2021/09/10 07:07:52;;;;;;;;;;;23.60;56.20;;;;;;4990343;28;20346;-65
2021/09/10 07:10:20;;;;;;;;;;;23.60;55.90;;;;;;4990020;28;20585;-65
2021/09/10 07:12:47;;;;;;;;;;;23.50;55.70;;;;;;4990264;28;20021;-65
2021/09/10 07:15:14;;;;;;;;;;;23.50;55.70;;;;;;4990315;28;19933;-65
2021/09/10 07:17:41;;;;;;;;;;;23.50;55.60;;;;;;4990195;28;19958;-65
2021/09/10 07:20:08;;;;;;;;;;;23.40;55.40;;;;;;4990287;28;19957;-65
2021/09/10 07:22:35;;;;;;;;;;;23.40;55.30;;;;;;4990300;28;20470;-65
2021/09/10 07:25:02;;;;;;;;;;;23.40;55.30;;;;;;4991275;28;19932;-65
2021/09/10 07:27:29;;;;;;;;;;;23.40;55.00;;;;;;4991242;28;20377;-65
2021/09/10 07:29:56;;;;;;;;;;;23.40;54.90;;;;;;4991335;28;19926;-66
2021/09/10 07:32:23;;;;;;;;;;;23.40;54.80;;;;;;4990882;28;19926;-65
2021/09/10 07:34:50;;;;;;;;;;;23.50;55.00;;;;;;4990959;28;19926;-65
2021/09/10 07:37:24;;;;;;;;;;;23.50;54.90;;;;;;4990978;28;20398;-65
2021/09/10 07:39:51;;;;;;;;;;;23.50;54.90;;;;;;4990089;28;20017;-65
2021/09/10 07:42:18;;;;;;;;;;;23.50;54.90;;;;;;4991202;28;19965;-67
2021/09/10 07:44:45;;;;;;;;;;;23.60;55.00;;;;;;4990618;28;19926;-64
2021/09/10 07:47:12;;;;;;;;;;;23.60;55.10;;;;;;4991336;28;20359;-67
2021/09/10 07:49:39;;;;;;;;;;;23.60;55.10;;;;;;4989962;28;20005;-68
2021/09/10 07:52:06;;;;;;;;;;;23.70;55.20;;;;;;5020120;28;19970;-65
2021/09/10 07:54:33;;;;;;;;;;;23.70;55.20;;;;;;4993541;28;20017;-68
2021/09/10 07:57:03;;;;;;;;;;;23.70;55.30;;;;;;4989600;28;19926;-69
2021/09/10 07:59:30;;;;;;;;;;;23.70;55.40;;;;;;4990537;28;19976;-65
2021/09/10 08:01:57;;;;;;;;;;;23.80;55.50;;;;;;4989816;28;19926;-66
2021/09/10 08:04:25;;;;;;;;;;;23.80;55.60;;;;;;4990611;28;19926;-65
2021/09/10 08:06:52;;;;;;;;;;;23.80;55.60;;;;;;4990556;28;20378;-66
2021/09/10 08:09:19;;;;;;;;;;;23.80;55.60;;;;;;4989675;28;19972;-65
2021/09/10 08:11:46;;;;;;;;;;;23.80;55.70;;;;;;4990060;28;19926;-65
2021/09/10 08:14:13;;;;;;;;;;;23.80;55.80;;;;;;4990557;28;20343;-66
2021/09/10 08:16:40;;;;;;;;;;;23.80;55.80;;;;;;4989293;28;19934;-65
2021/09/10 08:19:07;;;;;;;;;;;23.90;55.90;;;;;;4972417;28;19975;-65
2021/09/10 08:21:42;;;;;;;;;;;23.90;56.00;;;;;;4990549;28;19957;-65
2021/09/10 08:24:09;;;;;;;;;;;23.90;56.00;;;;;;4990366;28;20020;-69
2021/09/10 08:26:37;;;;;;;;;;;23.90;56.00;;;;;;4990393;28;19929;-65
2021/09/10 08:29:04;;;;;;;;;;;23.90;56.10;;;;;;4989918;28;19979;-65
2021/09/10 08:31:31;;;;;;;;;;;23.90;56.00;;;;;;4990214;28;20040;-69
2021/09/10 08:33:58;;;;;;;;;;;24.00;56.20;;;;;;4990553;28;19965;-65
2021/09/10 08:36:25;;;;;;;;;;;24.00;56.20;;;;;;4988997;28;20464;-66
2021/09/10 08:38:52;;;;;;;;;;;24.00;56.30;;;;;;4988867;28;19926;-65
2021/09/10 08:41:21;;;;;;;;;;;24.00;56.30;;;;;;4989169;28;20017;-65
2021/09/10 08:43:48;;;;;;;;;;;24.00;56.30;;;;;;4972888;28;19977;-65
2021/09/10 08:46:16;;;;;;;;;;;24.00;56.40;;;;;;4989340;28;19929;-66
2021/09/10 08:48:46;;;;;;;;;;;24.00;56.50;;;;;;4989566;28;20408;-67
2021/09/10 08:51:14;;;;;;;;;;;24.00;56.50;;;;;;4990062;28;20024;-66
2021/09/10 08:53:40;;;;;;;;;;;24.10;56.70;;;;;;4989221;28;19926;-65
2021/09/10 08:56:07;;;;;;;;;;;24.00;56.60;;;;;;4989746;28;19926;-65
2021/09/10 08:58:34;;;;;;;;;;;24.10;56.80;;;;;;4988747;28;19957;-65
2021/09/10 09:01:02;;;;;;;;;;;24.10;56.70;;;;;;4988433;28;19996;-66
2021/09/10 09:03:31;;;;;;;;;;;24.10;56.60;;;;;;4989012;28;19930;-65
2021/09/10 09:05:58;;;;;;;;;;;24.10;56.50;;;;;;4989303;28;20346;-65
2021/09/10 09:08:25;;;;;;;;;;;24.00;56.40;;;;;;4980822;28;19936;-65
2021/09/10 09:10:56;;;;;;;;;;;24.10;56.50;;;;;;4989533;28;20021;-65
2021/09/10 09:13:27;;;;;;;;;;;24.10;56.50;;;;;;4989184;28;20434;-67
2021/09/10 09:16:11;;;;;;;;;;;24.10;56.50;;;;;;4989224;28;19980;-65
2021/09/10 09:18:42;;;;;;;;;;;24.10;56.50;;;;;;4989365;28;19932;-68
2021/09/10 09:21:09;;;;;;;;;;;24.10;56.60;;;;;;4987987;28;19926;-66
2021/09/10 09:23:36;;;;;;;;;;;24.10;56.60;;;;;;4990470;28;19925;-65
2021/09/10 09:26:14;;;;;;;;;;;24.10;56.50;;;;;;4978450;28;19930;-68
2021/09/10 09:28:41;;;;;;;;;;;24.10;56.50;;;;;;4994490;28;19925;-68
2021/09/10 09:31:09;;;;;;;;;;;24.10;56.50;;;;;;4994610;28;20386;-67
2021/09/10 09:33:42;;;;;;;;;;;24.10;56.50;;;;;;4994687;28;19933;-67
2021/09/10 09:36:10;;;;;;;;;;;24.10;56.50;;;;;;4994764;28;19979;-66
2021/09/10 09:38:41;;;;;;;;;;;24.10;57.10;;;;;;4995925;28;19926;-67
2021/09/10 09:41:09;;;;;;;;;;;24.10;56.50;;;;;;4994935;28;19926;-66
2021/09/10 09:43:43;;;;;;;;;;;24.10;56.50;;;;;;4994422;28;19955;-66
2021/09/10 09:46:14;;;;;;;;;;;24.10;56.50;;;;;;4995685;28;20381;-66
2021/09/10 09:48:47;;;;;;;;;;;24.10;56.50;;;;;;4995932;28;19941;-65
2021/09/10 09:51:16;;;;;;;;;;;24.10;56.50;;;;;;4995172;28;19926;-65
2021/09/10 09:53:43;;;;;;;;;;;24.20;56.60;;;;;;5073699;28;20271;-65
2021/09/10 09:56:11;;;;;;;;;;;24.20;56.50;;;;;;4995171;28;19938;-65
2021/09/10 09:58:39;;;;;;;;;;;24.10;56.50;;;;;;4996715;28;20398;-65
2021/09/10 10:01:06;;;;;;;;;;;24.10;56.40;;;;;;4995566;28;19926;-65
2021/09/10 10:03:33;;;;;;;;;;;24.10;56.40;;;;;;4995992;28;20016;-65
2021/09/10 10:06:06;;;;;;;;;;;24.10;56.40;;;;;;4996635;28;19972;-66
2021/09/10 10:08:42;;;;;;;;;;;24.10;56.50;;;;;;4995543;28;19926;-65
2021/09/10 10:11:11;;;;;;;;;;;24.10;56.40;;;;;;4996111;28;20339;-65
2021/09/10 10:13:39;;;;;;;;;;;24.10;56.40;;;;;;4994443;28;19926;-65
2021/09/10 10:16:06;;;;;;;;;;;24.10;56.50;;;;;;4995951;28;19926;-66
2021/09/10 10:18:47;;;;;;;;;;;24.20;56.50;;;;;;4996409;28;19926;-66
2021/09/10 10:21:14;;;;;;;;;;;24.20;56.50;;;;;;4995795;28;19929;-65
2021/09/10 10:23:44;;;;;;;;;;;24.20;56.50;;;;;;4995138;28;20274;-65
2021/09/10 10:26:13;;;;;;;;;;;24.20;56.50;;;;;;4978160;28;19933;-66
2021/09/10 10:29:00;;;;;;;;;;;24.10;56.50;;;;;;4994865;28;19933;-65
2021/09/10 10:31:46;;;;;;;;;;;24.10;56.40;;;;;;4994672;28;19926;-65
2021/09/10 10:34:14;;;;;;;;;;;24.20;56.50;;;;;;4979359;28;19963;-65
2021/09/10 10:36:41;;;;;;;;;;;24.20;56.50;;;;;;4976431;28;19971;-65
2021/09/10 10:39:08;;;;;;;;;;;24.20;56.50;;;;;;4992950;28;19925;-66
2021/09/10 10:41:46;;;;;;;;;;;24.20;56.60;;;;;;4991935;28;19933;-65
2021/09/10 10:44:31;;;;;;;;;;;24.20;56.50;;;;;;4991888;28;19930;-65
2021/09/10 10:47:11;;;;;;;;;;;24.20;56.50;;;;;;4974415;28;19938;-65
2021/09/10 10:49:43;;;;;;;;;;;24.20;56.50;;;;;;4992397;28;19926;-65
2021/09/10 10:52:28;;;;;;;;;;;24.20;56.50;;;;;;5024246;28;20018;-66
2021/09/10 10:55:15;;;;;;;;;;;24.20;56.50;;;;;;4992337;28;19972;-65
2021/09/10 10:57:43;;;;;;;;;;;24.20;56.50;;;;;;4975194;28;19926;-67
2021/09/10 11:00:28;;;;;;;;;;;24.20;56.50;;;;;;4975532;28;19933;-65
2021/09/10 11:03:14;;;;;;;;;;;24.20;56.50;;;;;;4976567;28;19972;-66
2021/09/10 11:05:45;;;;;;;;;;;24.20;56.60;;;;;;4977653;28;19926;-65
2021/09/10 11:08:16;;;;;;;;;;;24.20;56.50;;;;;;4992244;28;19973;-65
2021/09/10 11:10:43;;;;;;;;;;;24.20;56.50;;;;;;4992597;28;19930;-65
2021/09/10 11:13:10;;;;;;;;;;;24.20;56.50;;;;;;4992305;28;19926;-65
2021/09/10 11:15:40;;;;;;;;;;;24.20;56.50;;;;;;4992590;28;19975;-66
2021/09/10 11:18:11;;;;;;;;;;;24.20;56.60;;;;;;4991264;28;19926;-66
2021/09/10 11:20:39;;;;;;;;;;;24.20;56.50;;;;;;4992534;28;19930;-66
2021/09/10 11:23:08;;;;;;;;;;;24.20;56.50;;;;;;4991412;28;19926;-66
2021/09/10 11:25:45;;;;;;;;;;;24.20;56.50;;;;;;4992618;28;19929;-65
2021/09/10 11:28:13;;;;;;;;;;;24.20;56.40;;;;;;4991084;28;19925;-65
2021/09/10 11:30:40;;;;;;;;;;;24.20;56.40;;;;;;4992194;28;19933;-65
2021/09/10 11:33:10;;;;;;;;;;;24.20;56.40;;;;;;4992129;28;19977;-66
2021/09/10 11:35:38;;;;;;;;;;;24.20;56.50;;;;;;4991995;28;19930;-65
2021/09/10 11:38:06;;;;;;;;;;;24.20;56.50;;;;;;4991814;28;19925;-65
2021/09/10 11:40:36;;;;;;;;;;;24.20;56.50;;;;;;4990731;28;19926;-65
2021/09/10 11:43:04;;;;;;;;;;;24.20;56.50;;;;;;4990673;28;19930;-65
2021/09/10 11:45:34;;;;;;;;;;;24.20;56.50;;;;;;4991557;28;19926;-66
2021/09/10 11:48:03;;;;;;;;;;;24.20;56.50;;;;;;4991224;28;19960;-65
2021/09/10 11:50:48;;;;;;;;;;;24.20;56.50;;;;;;4990517;28;19956;-67
2021/09/10 11:53:17;;;;;;;;;;;24.20;56.50;;;;;;4994076;28;20263;-67
2021/09/10 11:55:51;;;;;;;;;;;24.20;56.50;;;;;;4990373;28;19926;-65
2021/09/10 11:58:18;;;;;;;;;;;24.20;56.50;;;;;;4973457;28;19926;-66
2021/09/10 12:00:45;;;;;;;;;;;24.20;56.50;;;;;;4991358;28;19944;-65
2021/09/10 12:03:12;;;;;;;;;;;24.20;56.50;;;;;;4991639;28;20408;-65
2021/09/10 12:05:39;;;;;;;;;;;24.20;56.50;;;;;;4990660;28;19933;-65
2021/09/10 12:08:10;;;;;;;;;;;24.20;56.50;;;;;;4991667;28;19926;-66
2021/09/10 12:10:41;;;;;;;;;;;24.20;56.50;;;;;;4990784;28;19925;-65
2021/09/10 12:13:12;;;;;;;;;;;24.20;56.60;;;;;;4991229;28;19926;-65
2021/09/10 12:15:41;;;;;;;;;;;24.20;56.50;;;;;;4991169;28;19932;-66
2021/09/10 12:18:09;;;;;;;;;;;24.20;56.50;;;;;;4991599;28;19926;-65
2021/09/10 12:20:37;;;;;;;;;;;24.20;56.50;;;;;;4991575;28;19976;-66
2021/09/10 12:23:04;;;;;;;;;;;24.20;56.60;;;;;;4991020;28;19930;-65
2021/09/10 12:25:36;;;;;;;;;;;24.20;56.50;;;;;;4990212;28;19925;-66
2021/09/10 12:28:03;;;;;;;;;;;24.20;56.60;;;;;;4989893;28;19961;-65
2021/09/10 12:30:33;;;;;;;;;;;24.20;56.50;;;;;;4990363;28;19925;-66
2021/09/10 12:33:00;;;;;;;;;;;24.10;56.50;;;;;;4991046;28;21533;-65
2021/09/10 12:35:28;;;;;;;;;;;24.20;56.60;;;;;;4990955;28;19934;-65
2021/09/10 12:37:58;;;;;;;;;;;24.20;56.60;;;;;;4990336;28;19926;-65
2021/09/10 12:40:26;;;;;;;;;;;24.20;56.60;;;;;;4974641;28;19933;-66
2021/09/10 12:42:54;;;;;;;;;;;24.20;56.50;;;;;;4974010;28;19959;-65
2021/09/10 12:45:21;;;;;;;;;;;24.20;56.50;;;;;;4991023;28;19926;-65
2021/09/10 12:47:49;;;;;;;;;;;24.20;56.60;;;;;;4989978;28;19926;-66
2021/09/10 12:50:16;;;;;;;;;;;24.20;56.60;;;;;;4990940;28;19926;-66
2021/09/10 12:52:43;;;;;;;;;;;24.20;56.50;;;;;;5046868;28;19931;-66
2021/09/10 12:55:11;;;;;;;;;;;24.20;56.60;;;;;;4997086;28;19926;-65
2021/09/10 12:57:39;;;;;;;;;;;24.20;56.60;;;;;;4990867;28;19926;-65
2021/09/10 13:00:07;;;;;;;;;;;24.20;56.60;;;;;;4989895;28;19926;-65
2021/09/10 13:02:35;;;;;;;;;;;24.20;56.60;;;;;;4989805;28;20036;-66
2021/09/10 13:05:03;;;;;;;;;;;24.20;56.60;;;;;;4990685;28;19965;-66
2021/09/10 13:07:30;;;;;;;;;;;24.20;56.50;;;;;;4990668;28;20381;-65
2021/09/10 13:09:57;;;;;;;;;;;24.20;56.60;;;;;;4989336;28;19934;-65
2021/09/10 13:12:24;;;;;;;;;;;24.20;56.50;;;;;;4989681;28;20277;-65
2021/09/10 13:14:52;;;;;;;;;;;24.20;57.20;;;;;;4989487;28;19926;-65
2021/09/10 13:17:20;;;;;;;;;;;24.20;56.60;;;;;;4989215;28;19941;-65
2021/09/10 13:19:48;;;;;;;;;;;24.20;56.60;;;;;;4973196;28;19925;-65
2021/09/10 13:22:15;;;;;;;;;;;24.20;56.60;;;;;;4989227;28;19930;-68
2021/09/10 13:24:44;;;;;;;;;;;24.20;56.60;;;;;;4989616;28;20011;-65
2021/09/10 13:27:12;;;;;;;;;;;24.10;56.50;;;;;;4990667;28;19933;-65
2021/09/10 13:29:39;;;;;;;;;;;24.20;56.60;;;;;;4990210;28;19933;-65
2021/09/10 13:32:08;;;;;;;;;;;24.20;56.70;;;;;;4990516;28;19975;-65
2021/09/10 13:34:36;;;;;;;;;;;24.20;56.70;;;;;;4989240;28;19926;-66
2021/09/10 13:37:08;;;;;;;;;;;24.20;56.60;;;;;;4990241;28;19941;-66
2021/09/10 13:39:36;;;;;;;;;;;24.20;56.60;;;;;;4988985;28;19926;-66
2021/09/10 13:42:03;;;;;;;;;;;24.10;56.50;;;;;;4989879;28;19926;-65
2021/09/10 13:44:30;;;;;;;;;;;24.20;56.60;;;;;;4989856;28;19929;-65
2021/09/10 13:46:57;;;;;;;;;;;24.20;56.60;;;;;;4990532;28;19926;-65
2021/09/10 13:49:24;;;;;;;;;;;24.20;56.60;;;;;;4989513;28;20017;-66
2021/09/10 13:51:55;;;;;;;;;;;24.20;56.70;;;;;;5012221;28;19963;-66
2021/09/10 13:54:23;;;;;;;;;;;24.20;56.70;;;;;;4987613;28;19926;-66
2021/09/10 13:56:50;;;;;;;;;;;24.20;56.60;;;;;;4990235;28;19926;-65
2021/09/10 13:59:17;;;;;;;;;;;24.20;56.60;;;;;;4989777;28;19937;-66
2021/09/10 14:01:53;;;;;;;;;;;24.20;56.60;;;;;;4989172;28;19930;-65
2021/09/10 14:04:21;;;;;;;;;;;24.20;56.60;;;;;;4989058;28;19932;-66
2021/09/10 14:06:48;;;;;;;;;;;24.20;56.70;;;;;;4989740;28;19926;-65
2021/09/10 14:09:16;;;;;;;;;;;24.20;56.70;;;;;;4988887;28;19991;-65
2021/09/10 14:11:43;;;;;;;;;;;24.10;56.60;;;;;;4992621;28;20009;-65
2021/09/10 14:14:11;;;;;;;;;;;24.20;56.70;;;;;;4993437;28;19979;-66
2021/09/10 14:16:38;;;;;;;;;;;24.20;56.70;;;;;;4991707;28;19932;-66
2021/09/10 14:19:06;;;;;;;;;;;24.20;56.70;;;;;;4992024;28;19956;-65
2021/09/10 14:21:33;;;;;;;;;;;24.10;56.60;;;;;;4993148;28;19930;-65
2021/09/10 14:24:00;;;;;;;;;;;24.20;56.70;;;;;;4993240;28;19987;-65
2021/09/10 14:26:27;;;;;;;;;;;24.10;56.60;;;;;;4991664;28;19926;-66
2021/09/10 14:28:54;;;;;;;;;;;24.20;56.70;;;;;;4993177;28;19926;-65
2021/09/10 14:31:21;;;;;;;;;;;24.10;56.60;;;;;;4992861;28;19972;-65
2021/09/10 14:33:48;;;;;;;;;;;24.10;56.70;;;;;;4992849;28;20039;-66
2021/09/10 14:36:16;;;;;;;;;;;24.20;56.80;;;;;;4993110;28;19936;-66
2021/09/10 14:38:43;;;;;;;;;;;24.10;56.60;;;;;;4992816;28;19926;-66
2021/09/10 14:41:10;;;;;;;;;;;24.10;56.60;;;;;;4992875;28;19948;-66
2021/09/10 14:43:37;;;;;;;;;;;24.10;56.70;;;;;;4991930;28;19990;-65
2021/09/10 14:46:04;;;;;;;;;;;24.10;56.70;;;;;;4993189;28;19995;-66
2021/09/10 14:48:31;;;;;;;;;;;24.10;56.60;;;;;;4992942;28;19930;-66
2021/09/10 14:50:58;;;;;;;;;;;24.10;56.60;;;;;;4993106;28;19936;-65
2021/09/10 14:53:25;;;;;;;;;;;24.10;56.70;;;;;;4992201;28;20385;-65
2021/09/10 14:55:52;;;;;;;;;;;24.10;56.60;;;;;;4992278;28;19926;-66
2021/09/10 14:58:20;;;;;;;;;;;24.10;56.60;;;;;;4991615;28;19933;-66
2021/09/10 15:00:47;;;;;;;;;;;24.10;56.70;;;;;;4992445;28;19926;-66
2021/09/10 15:03:14;;;;;;;;;;;24.10;56.70;;;;;;4992629;28;19930;-66
2021/09/10 15:05:41;;;;;;;;;;;24.10;56.70;;;;;;4974124;28;19926;-65
2021/09/10 15:08:08;;;;;;;;;;;24.20;56.70;;;;;;4992455;28;19926;-66
2021/09/10 15:10:36;;;;;;;;;;;24.10;56.60;;;;;;4992227;28;20005;-66
2021/09/10 15:13:04;;;;;;;;;;;24.10;56.60;;;;;;4991909;28;19926;-66
2021/09/10 15:15:31;;;;;;;;;;;24.10;56.70;;;;;;4992385;28;19948;-65
2021/09/10 15:17:58;;;;;;;;;;;24.10;56.60;;;;;;4991997;28;19930;-66
2021/09/10 15:20:31;;;;;;;;;;;24.10;56.60;;;;;;4992401;28;20327;-66